sensor_id;sensor_type;location;lat;lon;timestamp;P1;durP1;ratioP1;P2;durP2;ratioP2
31724;SDS011;18306;40.960;14.836;2022-12-18T00:02:15;27.60;;;13.15;;
31724;SDS011;18306;40.960;14.836;2022-12-18T00:04:42;24.50;;;13.07;;
31724;SDS011;18306;40.960;14.836;2022-12-18T00:07:10;26.25;;;13.23;;
31724;SDS011;18306;40.960;14.836;2022-12-18T00:09:36;26.08;;;12.95;;
31724;SDS011;18306;40.960;14.836;2022-12-18T00:12:04;20.15;;;12.73;;
31724;SDS011;18306;40.960;14.836;2022-12-18T00:14:31;25.33;;;13.52;;
31724;SDS011;18306;40.960;14.836;2022-12-18T00:16:58;24.02;;;12.30;;
31724;SDS011;18306;40.960;14.836;2022-12-18T00:19:26;29.50;;;13.43;;
31724;SDS011;18306;40.960;14.836;2022-12-18T00:21:54;29.25;;;13.20;;
31724;SDS011;18306;40.960;14.836;2022-12-18T00:24:20;28.60;;;14.50;;
31724;SDS011;18306;40.960;14.836;2022-12-18T00:26:48;33.50;;;16.15;;
31724;SDS011;18306;40.960;14.836;2022-12-18T00:29:15;24.60;;;13.95;;
31724;SDS011;18306;40.960;14.836;2022-12-18T00:31:43;22.55;;;12.65;;
31724;SDS011;18306;40.960;14.836;2022-12-18T00:34:11;26.67;;;12.40;;
31724;SDS011;18306;40.960;14.836;2022-12-18T00:36:40;19.58;;;11.02;;
31724;SDS011;18306;40.960;14.836;2022-12-18T00:39:10;22.63;;;12.48;;
31724;SDS011;18306;40.960;14.836;2022-12-18T00:41:38;25.40;;;13.73;;
31724;SDS011;18306;40.960;14.836;2022-12-18T00:44:25;21.30;;;11.68;;
31724;SDS011;18306;40.960;14.836;2022-12-18T00:46:52;19.52;;;11.13;;
31724;SDS011;18306;40.960;14.836;2022-12-18T00:49:19;18.45;;;12.52;;
31724;SDS011;18306;40.960;14.836;2022-12-18T00:51:47;23.30;;;11.98;;
31724;SDS011;18306;40.960;14.836;2022-12-18T00:54:15;27.33;;;12.82;;
31724;SDS011;18306;40.960;14.836;2022-12-18T00:56:43;25.92;;;12.65;;
31724;SDS011;18306;40.960;14.836;2022-12-18T00:59:10;26.35;;;13.60;;
31724;SDS011;18306;40.960;14.836;2022-12-18T01:01:38;21.63;;;12.02;;
31724;SDS011;18306;40.960;14.836;2022-12-18T01:04:05;18.45;;;10.52;;
31724;SDS011;18306;40.960;14.836;2022-12-18T01:06:34;28.58;;;12.05;;
31724;SDS011;18306;40.960;14.836;2022-12-18T01:09:02;30.48;;;12.48;;
31724;SDS011;18306;40.960;14.836;2022-12-18T01:11:29;21.52;;;11.75;;
31724;SDS011;18306;40.960;14.836;2022-12-18T01:13:56;20.52;;;11.57;;
31724;SDS011;18306;40.960;14.836;2022-12-18T01:16:23;19.55;;;10.40;;
31724;SDS011;18306;40.960;14.836;2022-12-18T01:18:51;26.73;;;11.90;;
31724;SDS011;18306;40.960;14.836;2022-12-18T01:21:20;17.17;;;11.77;;
31724;SDS011;18306;40.960;14.836;2022-12-18T01:23:52;17.38;;;10.93;;
31724;SDS011;18306;40.960;14.836;2022-12-18T01:26:21;17.70;;;10.63;;
31724;SDS011;18306;40.960;14.836;2022-12-18T01:28:48;21.58;;;11.20;;
31724;SDS011;18306;40.960;14.836;2022-12-18T01:31:17;16.55;;;9.75;;
31724;SDS011;18306;40.960;14.836;2022-12-18T01:33:46;18.38;;;10.10;;
31724;SDS011;18306;40.960;14.836;2022-12-18T01:36:14;21.23;;;10.82;;
31724;SDS011;18306;40.960;14.836;2022-12-18T01:38:44;19.60;;;12.05;;
31724;SDS011;18306;40.960;14.836;2022-12-18T01:41:12;20.90;;;10.65;;
31724;SDS011;18306;40.960;14.836;2022-12-18T01:43:52;20.75;;;12.02;;
31724;SDS011;18306;40.960;14.836;2022-12-18T01:46:24;23.85;;;12.13;;
31724;SDS011;18306;40.960;14.836;2022-12-18T01:49:00;21.35;;;10.30;;
31724;SDS011;18306;40.960;14.836;2022-12-18T01:51:28;20.63;;;10.77;;
31724;SDS011;18306;40.960;14.836;2022-12-18T01:53:57;24.67;;;12.25;;
31724;SDS011;18306;40.960;14.836;2022-12-18T01:56:25;17.00;;;9.68;;
31724;SDS011;18306;40.960;14.836;2022-12-18T01:58:54;27.70;;;11.05;;
31724;SDS011;18306;40.960;14.836;2022-12-18T02:01:26;22.15;;;10.85;;
31724;SDS011;18306;40.960;14.836;2022-12-18T02:06:45;21.93;;;11.00;;
31724;SDS011;18306;40.960;14.836;2022-12-18T02:09:18;13.73;;;9.65;;
31724;SDS011;18306;40.960;14.836;2022-12-18T02:12:04;26.70;;;11.30;;
31724;SDS011;18306;40.960;14.836;2022-12-18T02:14:58;19.27;;;11.23;;
31724;SDS011;18306;40.960;14.836;2022-12-18T02:17:38;20.75;;;11.32;;
31724;SDS011;18306;40.960;14.836;2022-12-18T02:20:16;12.80;;;8.98;;
31724;SDS011;18306;40.960;14.836;2022-12-18T02:25:44;18.05;;;9.65;;
31724;SDS011;18306;40.960;14.836;2022-12-18T02:28:31;23.83;;;10.67;;
31724;SDS011;18306;40.960;14.836;2022-12-18T02:31:06;21.05;;;11.35;;
31724;SDS011;18306;40.960;14.836;2022-12-18T02:33:37;16.40;;;10.57;;
31724;SDS011;18306;40.960;14.836;2022-12-18T02:36:09;17.88;;;10.57;;
31724;SDS011;18306;40.960;14.836;2022-12-18T02:38:39;18.92;;;10.93;;
31724;SDS011;18306;40.960;14.836;2022-12-18T02:41:12;17.92;;;10.43;;
31724;SDS011;18306;40.960;14.836;2022-12-18T02:43:45;14.95;;;10.75;;
31724;SDS011;18306;40.960;14.836;2022-12-18T02:46:23;24.85;;;11.60;;
31724;SDS011;18306;40.960;14.836;2022-12-18T02:52:02;24.75;;;10.13;;
31724;SDS011;18306;40.960;14.836;2022-12-18T02:55:03;15.82;;;10.52;;
31724;SDS011;18306;40.960;14.836;2022-12-18T02:57:58;17.98;;;10.63;;
31724;SDS011;18306;40.960;14.836;2022-12-18T03:03:39;21.42;;;11.00;;
31724;SDS011;18306;40.960;14.836;2022-12-18T03:06:10;18.00;;;10.25;;
31724;SDS011;18306;40.960;14.836;2022-12-18T03:08:45;16.70;;;9.07;;
31724;SDS011;18306;40.960;14.836;2022-12-18T03:11:17;15.75;;;9.52;;
31724;SDS011;18306;40.960;14.836;2022-12-18T03:14:06;14.18;;;9.65;;
31724;SDS011;18306;40.960;14.836;2022-12-18T03:16:34;21.52;;;10.55;;
31724;SDS011;18306;40.960;14.836;2022-12-18T03:19:07;20.48;;;10.52;;
31724;SDS011;18306;40.960;14.836;2022-12-18T03:21:43;16.45;;;10.23;;
31724;SDS011;18306;40.960;14.836;2022-12-18T03:24:15;19.17;;;10.13;;
31724;SDS011;18306;40.960;14.836;2022-12-18T03:26:47;19.98;;;10.40;;
31724;SDS011;18306;40.960;14.836;2022-12-18T03:32:15;13.30;;;8.63;;
31724;SDS011;18306;40.960;14.836;2022-12-18T03:34:59;18.10;;;9.73;;
31724;SDS011;18306;40.960;14.836;2022-12-18T03:37:33;16.10;;;10.07;;
31724;SDS011;18306;40.960;14.836;2022-12-18T03:40:01;12.20;;;8.25;;
31724;SDS011;18306;40.960;14.836;2022-12-18T03:42:46;15.75;;;9.10;;
31724;SDS011;18306;40.960;14.836;2022-12-18T03:46:02;15.27;;;8.65;;
31724;SDS011;18306;40.960;14.836;2022-12-18T03:48:19;17.13;;;9.25;;
31724;SDS011;18306;40.960;14.836;2022-12-18T03:51:26;13.43;;;8.13;;
31724;SDS011;18306;40.960;14.836;2022-12-18T03:54:04;12.98;;;7.55;;
31724;SDS011;18306;40.960;14.836;2022-12-18T03:56:39;13.70;;;8.65;;
31724;SDS011;18306;40.960;14.836;2022-12-18T03:59:15;18.88;;;9.82;;
31724;SDS011;18306;40.960;14.836;2022-12-18T04:01:46;14.93;;;8.38;;
31724;SDS011;18306;40.960;14.836;2022-12-18T04:04:17;17.55;;;9.65;;
31724;SDS011;18306;40.960;14.836;2022-12-18T04:06:45;21.77;;;8.70;;
31724;SDS011;18306;40.960;14.836;2022-12-18T04:09:17;16.77;;;10.27;;
31724;SDS011;18306;40.960;14.836;2022-12-18T04:11:47;14.52;;;9.27;;
31724;SDS011;18306;40.960;14.836;2022-12-18T04:14:15;12.10;;;9.02;;
31724;SDS011;18306;40.960;14.836;2022-12-18T04:16:42;15.60;;;9.65;;
31724;SDS011;18306;40.960;14.836;2022-12-18T04:19:13;14.95;;;8.82;;
31724;SDS011;18306;40.960;14.836;2022-12-18T04:21:42;17.40;;;9.30;;
31724;SDS011;18306;40.960;14.836;2022-12-18T04:24:11;15.27;;;9.32;;
31724;SDS011;18306;40.960;14.836;2022-12-18T04:26:46;21.13;;;8.93;;
31724;SDS011;18306;40.960;14.836;2022-12-18T04:29:17;16.40;;;9.82;;
31724;SDS011;18306;40.960;14.836;2022-12-18T04:31:44;15.90;;;8.90;;
31724;SDS011;18306;40.960;14.836;2022-12-18T04:34:11;15.80;;;8.35;;
31724;SDS011;18306;40.960;14.836;2022-12-18T04:36:45;13.57;;;8.80;;
31724;SDS011;18306;40.960;14.836;2022-12-18T04:39:33;10.38;;;7.47;;
31724;SDS011;18306;40.960;14.836;2022-12-18T04:42:06;12.00;;;8.65;;
31724;SDS011;18306;40.960;14.836;2022-12-18T04:44:34;14.40;;;8.38;;
31724;SDS011;18306;40.960;14.836;2022-12-18T04:47:02;18.45;;;9.35;;
31724;SDS011;18306;40.960;14.836;2022-12-18T04:49:29;14.88;;;9.18;;
31724;SDS011;18306;40.960;14.836;2022-12-18T04:51:56;15.75;;;9.43;;
31724;SDS011;18306;40.960;14.836;2022-12-18T04:54:23;21.77;;;10.90;;
31724;SDS011;18306;40.960;14.836;2022-12-18T04:56:50;15.23;;;9.02;;
31724;SDS011;18306;40.960;14.836;2022-12-18T04:59:17;17.60;;;9.63;;
31724;SDS011;18306;40.960;14.836;2022-12-18T05:01:51;16.15;;;9.52;;
31724;SDS011;18306;40.960;14.836;2022-12-18T05:04:40;23.70;;;8.53;;
31724;SDS011;18306;40.960;14.836;2022-12-18T05:07:21;9.65;;;7.80;;
31724;SDS011;18306;40.960;14.836;2022-12-18T05:10:07;16.98;;;8.35;;
31724;SDS011;18306;40.960;14.836;2022-12-18T05:12:45;20.52;;;9.55;;
31724;SDS011;18306;40.960;14.836;2022-12-18T05:15:40;12.23;;;8.25;;
31724;SDS011;18306;40.960;14.836;2022-12-18T05:18:17;14.90;;;9.30;;
31724;SDS011;18306;40.960;14.836;2022-12-18T05:20:44;19.67;;;8.88;;
31724;SDS011;18306;40.960;14.836;2022-12-18T05:23:11;16.13;;;9.73;;
31724;SDS011;18306;40.960;14.836;2022-12-18T05:25:38;14.07;;;9.10;;
31724;SDS011;18306;40.960;14.836;2022-12-18T05:28:05;21.13;;;9.90;;
31724;SDS011;18306;40.960;14.836;2022-12-18T05:30:32;17.20;;;9.57;;
31724;SDS011;18306;40.960;14.836;2022-12-18T05:32:59;15.07;;;9.48;;
31724;SDS011;18306;40.960;14.836;2022-12-18T05:35:26;18.25;;;10.35;;
31724;SDS011;18306;40.960;14.836;2022-12-18T05:37:53;11.75;;;9.05;;
31724;SDS011;18306;40.960;14.836;2022-12-18T05:40:20;12.02;;;8.25;;
31724;SDS011;18306;40.960;14.836;2022-12-18T05:42:47;11.25;;;8.02;;
31724;SDS011;18306;40.960;14.836;2022-12-18T05:45:14;13.05;;;9.27;;
31724;SDS011;18306;40.960;14.836;2022-12-18T05:47:42;16.80;;;8.77;;
31724;SDS011;18306;40.960;14.836;2022-12-18T05:50:09;17.88;;;10.43;;
31724;SDS011;18306;40.960;14.836;2022-12-18T05:52:51;18.75;;;9.68;;
31724;SDS011;18306;40.960;14.836;2022-12-18T05:55:18;18.27;;;8.95;;
31724;SDS011;18306;40.960;14.836;2022-12-18T05:57:45;13.55;;;9.40;;
31724;SDS011;18306;40.960;14.836;2022-12-18T06:00:18;18.73;;;10.07;;
31724;SDS011;18306;40.960;14.836;2022-12-18T06:02:46;14.00;;;9.13;;
31724;SDS011;18306;40.960;14.836;2022-12-18T06:05:14;19.45;;;9.73;;
31724;SDS011;18306;40.960;14.836;2022-12-18T06:07:50;22.88;;;9.50;;
31724;SDS011;18306;40.960;14.836;2022-12-18T06:10:17;16.20;;;9.68;;
31724;SDS011;18306;40.960;14.836;2022-12-18T06:12:44;13.00;;;9.48;;
31724;SDS011;18306;40.960;14.836;2022-12-18T06:15:12;12.55;;;9.05;;
31724;SDS011;18306;40.960;14.836;2022-12-18T06:17:46;12.55;;;8.88;;
31724;SDS011;18306;40.960;14.836;2022-12-18T06:20:13;16.20;;;10.02;;
31724;SDS011;18306;40.960;14.836;2022-12-18T06:22:40;13.93;;;9.25;;
31724;SDS011;18306;40.960;14.836;2022-12-18T06:25:07;13.93;;;9.10;;
31724;SDS011;18306;40.960;14.836;2022-12-18T06:27:35;14.60;;;9.77;;
31724;SDS011;18306;40.960;14.836;2022-12-18T06:30:08;12.13;;;9.13;;
31724;SDS011;18306;40.960;14.836;2022-12-18T06:32:36;15.95;;;9.20;;
31724;SDS011;18306;40.960;14.836;2022-12-18T06:35:03;12.80;;;9.00;;
31724;SDS011;18306;40.960;14.836;2022-12-18T06:37:31;18.20;;;9.13;;
31724;SDS011;18306;40.960;14.836;2022-12-18T06:39:58;13.00;;;8.75;;
31724;SDS011;18306;40.960;14.836;2022-12-18T06:42:28;11.57;;;8.25;;
31724;SDS011;18306;40.960;14.836;2022-12-18T06:44:55;15.10;;;8.88;;
31724;SDS011;18306;40.960;14.836;2022-12-18T06:47:22;11.85;;;8.30;;
31724;SDS011;18306;40.960;14.836;2022-12-18T06:49:49;14.00;;;9.32;;
31724;SDS011;18306;40.960;14.836;2022-12-18T06:52:25;17.40;;;10.23;;
31724;SDS011;18306;40.960;14.836;2022-12-18T06:54:53;14.68;;;9.32;;
31724;SDS011;18306;40.960;14.836;2022-12-18T06:57:20;13.98;;;9.40;;
31724;SDS011;18306;40.960;14.836;2022-12-18T06:59:47;12.82;;;8.90;;
31724;SDS011;18306;40.960;14.836;2022-12-18T07:02:14;14.98;;;9.85;;
31724;SDS011;18306;40.960;14.836;2022-12-18T07:04:41;18.10;;;10.32;;
31724;SDS011;18306;40.960;14.836;2022-12-18T07:07:08;18.08;;;9.48;;
31724;SDS011;18306;40.960;14.836;2022-12-18T07:09:35;15.85;;;10.07;;
31724;SDS011;18306;40.960;14.836;2022-12-18T07:12:02;13.23;;;9.55;;
31724;SDS011;18306;40.960;14.836;2022-12-18T07:14:31;12.27;;;8.63;;
31724;SDS011;18306;40.960;14.836;2022-12-18T07:16:57;10.40;;;8.32;;
31724;SDS011;18306;40.960;14.836;2022-12-18T07:19:25;14.45;;;9.45;;
31724;SDS011;18306;40.960;14.836;2022-12-18T07:21:52;17.17;;;10.05;;
31724;SDS011;18306;40.960;14.836;2022-12-18T07:24:19;19.25;;;11.88;;
31724;SDS011;18306;40.960;14.836;2022-12-18T07:26:46;15.65;;;10.05;;
31724;SDS011;18306;40.960;14.836;2022-12-18T07:29:13;17.45;;;10.48;;
31724;SDS011;18306;40.960;14.836;2022-12-18T07:31:41;16.45;;;10.50;;
31724;SDS011;18306;40.960;14.836;2022-12-18T07:34:11;21.30;;;10.73;;
31724;SDS011;18306;40.960;14.836;2022-12-18T07:36:39;21.10;;;11.75;;
31724;SDS011;18306;40.960;14.836;2022-12-18T07:39:07;16.40;;;11.05;;
31724;SDS011;18306;40.960;14.836;2022-12-18T07:41:34;19.65;;;11.63;;
31724;SDS011;18306;40.960;14.836;2022-12-18T07:44:11;16.48;;;10.85;;
31724;SDS011;18306;40.960;14.836;2022-12-18T07:46:39;16.63;;;11.35;;
31724;SDS011;18306;40.960;14.836;2022-12-18T07:49:18;16.77;;;10.80;;
31724;SDS011;18306;40.960;14.836;2022-12-18T07:51:45;19.52;;;13.60;;
31724;SDS011;18306;40.960;14.836;2022-12-18T07:54:15;23.42;;;13.18;;
31724;SDS011;18306;40.960;14.836;2022-12-18T07:56:42;15.70;;;10.73;;
31724;SDS011;18306;40.960;14.836;2022-12-18T07:59:09;18.38;;;10.90;;
31724;SDS011;18306;40.960;14.836;2022-12-18T08:01:36;21.95;;;10.93;;
31724;SDS011;18306;40.960;14.836;2022-12-18T08:04:03;17.70;;;10.70;;
31724;SDS011;18306;40.960;14.836;2022-12-18T08:06:30;18.85;;;11.40;;
31724;SDS011;18306;40.960;14.836;2022-12-18T08:08:57;21.50;;;12.35;;
31724;SDS011;18306;40.960;14.836;2022-12-18T08:11:25;22.50;;;11.98;;
31724;SDS011;18306;40.960;14.836;2022-12-18T08:13:53;25.95;;;12.63;;
31724;SDS011;18306;40.960;14.836;2022-12-18T08:16:21;20.58;;;11.98;;
31724;SDS011;18306;40.960;14.836;2022-12-18T08:18:48;16.98;;;9.95;;
31724;SDS011;18306;40.960;14.836;2022-12-18T08:21:20;23.25;;;11.45;;
31724;SDS011;18306;40.960;14.836;2022-12-18T08:23:49;21.10;;;11.52;;
31724;SDS011;18306;40.960;14.836;2022-12-18T08:26:17;27.52;;;12.60;;
31724;SDS011;18306;40.960;14.836;2022-12-18T08:28:45;17.13;;;10.82;;
31724;SDS011;18306;40.960;14.836;2022-12-18T08:31:12;20.13;;;11.02;;
31724;SDS011;18306;40.960;14.836;2022-12-18T08:33:39;18.48;;;10.20;;
31724;SDS011;18306;40.960;14.836;2022-12-18T08:36:08;23.55;;;10.10;;
31724;SDS011;18306;40.960;14.836;2022-12-18T08:38:36;21.85;;;11.32;;
31724;SDS011;18306;40.960;14.836;2022-12-18T08:41:04;20.20;;;11.20;;
31724;SDS011;18306;40.960;14.836;2022-12-18T08:43:33;27.42;;;14.27;;
31724;SDS011;18306;40.960;14.836;2022-12-18T08:46:26;40.58;;;17.40;;
31724;SDS011;18306;40.960;14.836;2022-12-18T08:48:57;23.98;;;13.45;;
31724;SDS011;18306;40.960;14.836;2022-12-18T08:51:24;22.55;;;11.95;;
31724;SDS011;18306;40.960;14.836;2022-12-18T08:53:56;42.72;;;20.55;;
31724;SDS011;18306;40.960;14.836;2022-12-18T08:56:31;25.70;;;15.05;;
31724;SDS011;18306;40.960;14.836;2022-12-18T08:59:02;18.30;;;11.73;;
31724;SDS011;18306;40.960;14.836;2022-12-18T09:01:30;21.85;;;14.88;;
31724;SDS011;18306;40.960;14.836;2022-12-18T09:04:09;34.53;;;15.13;;
31724;SDS011;18306;40.960;14.836;2022-12-18T09:06:37;19.33;;;13.18;;
31724;SDS011;18306;40.960;14.836;2022-12-18T09:09:04;19.38;;;10.50;;
31724;SDS011;18306;40.960;14.836;2022-12-18T09:11:33;19.63;;;11.65;;
31724;SDS011;18306;40.960;14.836;2022-12-18T09:14:00;21.27;;;11.68;;
31724;SDS011;18306;40.960;14.836;2022-12-18T09:16:28;21.42;;;11.52;;
31724;SDS011;18306;40.960;14.836;2022-12-18T09:18:56;23.25;;;11.45;;
31724;SDS011;18306;40.960;14.836;2022-12-18T09:21:29;19.30;;;11.02;;
31724;SDS011;18306;40.960;14.836;2022-12-18T09:23:57;19.33;;;10.93;;
31724;SDS011;18306;40.960;14.836;2022-12-18T09:26:25;16.77;;;11.32;;
31724;SDS011;18306;40.960;14.836;2022-12-18T09:28:53;20.52;;;13.52;;
31724;SDS011;18306;40.960;14.836;2022-12-18T09:31:22;25.85;;;14.15;;
31724;SDS011;18306;40.960;14.836;2022-12-18T09:33:51;26.83;;;15.35;;
31724;SDS011;18306;40.960;14.836;2022-12-18T09:36:18;27.20;;;13.85;;
31724;SDS011;18306;40.960;14.836;2022-12-18T09:38:46;49.15;;;16.55;;
31724;SDS011;18306;40.960;14.836;2022-12-18T09:49:25;23.20;;;12.07;;
31724;SDS011;18306;40.960;14.836;2022-12-18T09:52:04;20.92;;;11.23;;
31724;SDS011;18306;40.960;14.836;2022-12-18T09:54:53;17.42;;;10.55;;
31724;SDS011;18306;40.960;14.836;2022-12-18T09:57:32;22.27;;;13.02;;
31724;SDS011;18306;40.960;14.836;2022-12-18T10:00:35;21.27;;;11.43;;
31724;SDS011;18306;40.960;14.836;2022-12-18T10:03:11;21.30;;;11.25;;
31724;SDS011;18306;40.960;14.836;2022-12-18T10:09:07;23.75;;;10.98;;
31724;SDS011;18306;40.960;14.836;2022-12-18T10:11:54;23.15;;;11.38;;
31724;SDS011;18306;40.960;14.836;2022-12-18T10:17:45;24.80;;;13.55;;
31724;SDS011;18306;40.960;14.836;2022-12-18T10:20:24;19.00;;;12.13;;
31724;SDS011;18306;40.960;14.836;2022-12-18T10:26:07;24.25;;;11.65;;
31724;SDS011;18306;40.960;14.836;2022-12-18T10:28:37;27.70;;;12.80;;
31724;SDS011;18306;40.960;14.836;2022-12-18T10:31:07;25.30;;;12.38;;
31724;SDS011;18306;40.960;14.836;2022-12-18T10:33:43;18.25;;;12.63;;
31724;SDS011;18306;40.960;14.836;2022-12-18T10:36:11;21.35;;;12.40;;
31724;SDS011;18306;40.960;14.836;2022-12-18T10:38:39;23.58;;;11.73;;
31724;SDS011;18306;40.960;14.836;2022-12-18T10:41:13;24.58;;;12.55;;
31724;SDS011;18306;40.960;14.836;2022-12-18T10:46:47;22.60;;;13.65;;
31724;SDS011;18306;40.960;14.836;2022-12-18T10:49:22;17.73;;;10.77;;
31724;SDS011;18306;40.960;14.836;2022-12-18T10:54:57;19.23;;;11.25;;
31724;SDS011;18306;40.960;14.836;2022-12-18T10:57:37;16.20;;;10.02;;
31724;SDS011;18306;40.960;14.836;2022-12-18T11:02:48;11.90;;;7.88;;
31724;SDS011;18306;40.960;14.836;2022-12-18T11:05:24;14.90;;;8.50;;
31724;SDS011;18306;40.960;14.836;2022-12-18T11:07:56;11.23;;;7.43;;
31724;SDS011;18306;40.960;14.836;2022-12-18T11:13:17;10.45;;;6.72;;
31724;SDS011;18306;40.960;14.836;2022-12-18T11:15:48;11.95;;;6.70;;
31724;SDS011;18306;40.960;14.836;2022-12-18T11:18:19;10.68;;;7.47;;
31724;SDS011;18306;40.960;14.836;2022-12-18T11:24:07;15.45;;;9.63;;
31724;SDS011;18306;40.960;14.836;2022-12-18T11:26:47;19.40;;;10.57;;
31724;SDS011;18306;40.960;14.836;2022-12-18T11:29:19;14.13;;;9.45;;
31724;SDS011;18306;40.960;14.836;2022-12-18T11:32:04;12.48;;;9.05;;
31724;SDS011;18306;40.960;14.836;2022-12-18T11:37:54;16.17;;;7.82;;
31724;SDS011;18306;40.960;14.836;2022-12-18T11:40:36;13.23;;;8.05;;
31724;SDS011;18306;40.960;14.836;2022-12-18T11:43:14;9.38;;;7.70;;
31724;SDS011;18306;40.960;14.836;2022-12-18T11:46:32;9.65;;;7.15;;
31724;SDS011;18306;40.960;14.836;2022-12-18T11:48:52;16.25;;;8.40;;
31724;SDS011;18306;40.960;14.836;2022-12-18T11:54:42;27.90;;;13.48;;
31724;SDS011;18306;40.960;14.836;2022-12-18T11:57:24;10.80;;;6.88;;
31724;SDS011;18306;40.960;14.836;2022-12-18T12:02:50;13.88;;;6.38;;
31724;SDS011;18306;40.960;14.836;2022-12-18T12:14:01;7.00;;;5.05;;
31724;SDS011;18306;40.960;14.836;2022-12-18T12:16:53;9.05;;;5.45;;
31724;SDS011;18306;40.960;14.836;2022-12-18T12:19:45;11.00;;;5.57;;
31724;SDS011;18306;40.960;14.836;2022-12-18T12:22:53;9.93;;;4.93;;
31724;SDS011;18306;40.960;14.836;2022-12-18T12:25:43;10.27;;;4.72;;
31724;SDS011;18306;40.960;14.836;2022-12-18T12:34:31;6.45;;;4.55;;
31724;SDS011;18306;40.960;14.836;2022-12-18T12:37:36;8.63;;;3.35;;
31724;SDS011;18306;40.960;14.836;2022-12-18T12:40:18;3.63;;;2.97;;
31724;SDS011;18306;40.960;14.836;2022-12-18T12:42:57;8.00;;;5.45;;
31724;SDS011;18306;40.960;14.836;2022-12-18T12:48:49;8.38;;;3.95;;
31724;SDS011;18306;40.960;14.836;2022-12-18T12:53:50;4.28;;;2.40;;
31724;SDS011;18306;40.960;14.836;2022-12-18T12:56:19;3.55;;;1.83;;
31724;SDS011;18306;40.960;14.836;2022-12-18T13:04:25;5.13;;;2.15;;
31724;SDS011;18306;40.960;14.836;2022-12-18T13:07:10;6.88;;;3.47;;
31724;SDS011;18306;40.960;14.836;2022-12-18T13:12:59;5.28;;;3.15;;
31724;SDS011;18306;40.960;14.836;2022-12-18T13:18:06;6.22;;;3.03;;
31724;SDS011;18306;40.960;14.836;2022-12-18T13:20:50;13.95;;;5.47;;
31724;SDS011;18306;40.960;14.836;2022-12-18T13:23:33;9.05;;;5.05;;
31724;SDS011;18306;40.960;14.836;2022-12-18T13:28:50;12.63;;;6.68;;
31724;SDS011;18306;40.960;14.836;2022-12-18T13:36:45;6.82;;;2.83;;
31724;SDS011;18306;40.960;14.836;2022-12-18T13:41:41;6.68;;;3.78;;
31724;SDS011;18306;40.960;14.836;2022-12-18T13:44:13;4.35;;;2.75;;
31724;SDS011;18306;40.960;14.836;2022-12-18T13:46:50;4.63;;;2.92;;
31724;SDS011;18306;40.960;14.836;2022-12-18T13:52:18;5.70;;;3.03;;
31724;SDS011;18306;40.960;14.836;2022-12-18T13:54:52;8.25;;;3.33;;
31724;SDS011;18306;40.960;14.836;2022-12-18T13:57:32;4.17;;;2.27;;
31724;SDS011;18306;40.960;14.836;2022-12-18T14:02:53;6.60;;;3.20;;
31724;SDS011;18306;40.960;14.836;2022-12-18T14:05:25;3.42;;;2.72;;
31724;SDS011;18306;40.960;14.836;2022-12-18T14:07:53;6.45;;;3.08;;
31724;SDS011;18306;40.960;14.836;2022-12-18T14:10:21;10.48;;;5.60;;
31724;SDS011;18306;40.960;14.836;2022-12-18T14:12:49;6.43;;;4.25;;
31724;SDS011;18306;40.960;14.836;2022-12-18T14:20:45;6.50;;;3.80;;
31724;SDS011;18306;40.960;14.836;2022-12-18T14:26:19;5.20;;;3.00;;
31724;SDS011;18306;40.960;14.836;2022-12-18T14:28:55;5.97;;;3.80;;
31724;SDS011;18306;40.960;14.836;2022-12-18T14:31:28;7.70;;;4.25;;
31724;SDS011;18306;40.960;14.836;2022-12-18T14:33:56;7.28;;;3.53;;
31724;SDS011;18306;40.960;14.836;2022-12-18T14:36:25;8.75;;;5.43;;
31724;SDS011;18306;40.960;14.836;2022-12-18T14:41:43;4.57;;;3.40;;
31724;SDS011;18306;40.960;14.836;2022-12-18T14:44:11;10.50;;;3.95;;
31724;SDS011;18306;40.960;14.836;2022-12-18T14:46:39;10.63;;;4.10;;
31724;SDS011;18306;40.960;14.836;2022-12-18T14:51:48;10.25;;;5.00;;
31724;SDS011;18306;40.960;14.836;2022-12-18T14:54:19;17.98;;;5.72;;
31724;SDS011;18306;40.960;14.836;2022-12-18T14:56:49;8.15;;;4.07;;
31724;SDS011;18306;40.960;14.836;2022-12-18T14:59:40;13.23;;;4.75;;
31724;SDS011;18306;40.960;14.836;2022-12-18T15:04:44;7.20;;;2.88;;
31724;SDS011;18306;40.960;14.836;2022-12-18T15:09:39;6.20;;;3.15;;
31724;SDS011;18306;40.960;14.836;2022-12-18T15:12:28;3.05;;;2.03;;
31724;SDS011;18306;40.960;14.836;2022-12-18T15:15:02;7.25;;;2.38;;
31724;SDS011;18306;40.960;14.836;2022-12-18T15:17:30;3.40;;;1.90;;
31724;SDS011;18306;40.960;14.836;2022-12-18T15:20:01;2.92;;;2.20;;
31724;SDS011;18306;40.960;14.836;2022-12-18T15:22:35;5.13;;;2.63;;
31724;SDS011;18306;40.960;14.836;2022-12-18T15:25:03;6.40;;;2.75;;
31724;SDS011;18306;40.960;14.836;2022-12-18T15:27:54;10.48;;;3.08;;
31724;SDS011;18306;40.960;14.836;2022-12-18T15:30:21;7.57;;;3.55;;
31724;SDS011;18306;40.960;14.836;2022-12-18T15:32:50;7.95;;;4.30;;
31724;SDS011;18306;40.960;14.836;2022-12-18T15:35:20;6.30;;;3.50;;
31724;SDS011;18306;40.960;14.836;2022-12-18T15:37:49;4.43;;;3.40;;
31724;SDS011;18306;40.960;14.836;2022-12-18T15:40:18;4.20;;;3.20;;
31724;SDS011;18306;40.960;14.836;2022-12-18T15:42:47;4.63;;;2.60;;
31724;SDS011;18306;40.960;14.836;2022-12-18T15:45:33;4.20;;;2.65;;
31724;SDS011;18306;40.960;14.836;2022-12-18T15:48:00;6.57;;;2.75;;
31724;SDS011;18306;40.960;14.836;2022-12-18T15:50:27;3.67;;;2.53;;
31724;SDS011;18306;40.960;14.836;2022-12-18T15:52:54;7.15;;;2.45;;
31724;SDS011;18306;40.960;14.836;2022-12-18T15:55:22;7.88;;;4.72;;
31724;SDS011;18306;40.960;14.836;2022-12-18T15:58:09;8.48;;;4.35;;
31724;SDS011;18306;40.960;14.836;2022-12-18T16:00:38;8.02;;;4.72;;
31724;SDS011;18306;40.960;14.836;2022-12-18T16:03:08;10.38;;;5.25;;
31724;SDS011;18306;40.960;14.836;2022-12-18T16:05:35;12.77;;;5.15;;
31724;SDS011;18306;40.960;14.836;2022-12-18T16:08:03;9.55;;;5.03;;
31724;SDS011;18306;40.960;14.836;2022-12-18T16:10:30;8.88;;;5.47;;
31724;SDS011;18306;40.960;14.836;2022-12-18T16:12:57;9.55;;;5.30;;
31724;SDS011;18306;40.960;14.836;2022-12-18T16:15:24;7.15;;;3.55;;
31724;SDS011;18306;40.960;14.836;2022-12-18T16:17:52;10.25;;;4.18;;
31724;SDS011;18306;40.960;14.836;2022-12-18T16:20:20;6.82;;;4.22;;
31724;SDS011;18306;40.960;14.836;2022-12-18T16:22:51;9.02;;;5.72;;
31724;SDS011;18306;40.960;14.836;2022-12-18T16:25:20;12.55;;;6.28;;
31724;SDS011;18306;40.960;14.836;2022-12-18T16:27:49;17.17;;;7.85;;
31724;SDS011;18306;40.960;14.836;2022-12-18T16:30:17;11.63;;;7.40;;
31724;SDS011;18306;40.960;14.836;2022-12-18T16:32:48;11.25;;;6.15;;
31724;SDS011;18306;40.960;14.836;2022-12-18T16:35:16;11.57;;;7.53;;
31724;SDS011;18306;40.960;14.836;2022-12-18T16:37:48;12.00;;;8.32;;
31724;SDS011;18306;40.960;14.836;2022-12-18T16:40:16;14.90;;;7.40;;
31724;SDS011;18306;40.960;14.836;2022-12-18T16:42:44;8.43;;;6.28;;
31724;SDS011;18306;40.960;14.836;2022-12-18T16:45:13;10.77;;;5.82;;
31724;SDS011;18306;40.960;14.836;2022-12-18T16:47:47;16.13;;;7.50;;
31724;SDS011;18306;40.960;14.836;2022-12-18T16:50:15;13.85;;;7.55;;
31724;SDS011;18306;40.960;14.836;2022-12-18T16:52:42;11.73;;;6.70;;